sensor_id;sensor_type;location;lat;lon;timestamp;P1;durP1;ratioP1;P2;durP2;ratioP2
527;SDS011;250;47.712;7.508;2022-12-07T00:01:47;17.47;;;9.90;;
527;SDS011;250;47.712;7.508;2022-12-07T00:04:15;12.73;;;11.10;;
527;SDS011;250;47.712;7.508;2022-12-07T00:06:45;14.30;;;10.90;;
527;SDS011;250;47.712;7.508;2022-12-07T00:09:17;14.17;;;11.13;;
527;SDS011;250;47.712;7.508;2022-12-07T00:11:44;11.23;;;9.67;;
527;SDS011;250;47.712;7.508;2022-12-07T00:14:14;12.07;;;10.77;;
527;SDS011;250;47.712;7.508;2022-12-07T00:16:43;10.60;;;8.87;;
527;SDS011;250;47.712;7.508;2022-12-07T00:19:10;10.17;;;9.10;;
527;SDS011;250;47.712;7.508;2022-12-07T00:21:38;10.90;;;9.77;;
527;SDS011;250;47.712;7.508;2022-12-07T00:24:07;11.23;;;9.63;;
527;SDS011;250;47.712;7.508;2022-12-07T00:26:36;12.73;;;10.77;;
527;SDS011;250;47.712;7.508;2022-12-07T00:29:06;13.63;;;10.13;;
527;SDS011;250;47.712;7.508;2022-12-07T00:31:36;11.63;;;9.47;;
527;SDS011;250;47.712;7.508;2022-12-07T00:34:04;12.67;;;10.40;;
527;SDS011;250;47.712;7.508;2022-12-07T00:36:31;9.93;;;8.93;;
527;SDS011;250;47.712;7.508;2022-12-07T00:38:59;11.60;;;10.20;;
527;SDS011;250;47.712;7.508;2022-12-07T00:41:29;11.93;;;9.97;;
527;SDS011;250;47.712;7.508;2022-12-07T00:43:56;10.83;;;9.17;;
527;SDS011;250;47.712;7.508;2022-12-07T00:46:24;10.60;;;9.50;;
527;SDS011;250;47.712;7.508;2022-12-07T00:48:51;11.93;;;8.90;;
527;SDS011;250;47.712;7.508;2022-12-07T00:51:20;10.40;;;9.30;;
527;SDS011;250;47.712;7.508;2022-12-07T00:53:49;14.17;;;9.83;;
527;SDS011;250;47.712;7.508;2022-12-07T00:56:18;12.20;;;10.00;;
527;SDS011;250;47.712;7.508;2022-12-07T00:58:50;10.23;;;8.90;;
527;SDS011;250;47.712;7.508;2022-12-07T01:01:18;11.07;;;9.27;;
527;SDS011;250;47.712;7.508;2022-12-07T01:03:46;12.43;;;9.43;;
527;SDS011;250;47.712;7.508;2022-12-07T01:06:14;12.83;;;10.43;;
527;SDS011;250;47.712;7.508;2022-12-07T01:08:41;13.13;;;9.50;;
527;SDS011;250;47.712;7.508;2022-12-07T01:11:09;11.23;;;9.80;;
527;SDS011;250;47.712;7.508;2022-12-07T01:13:38;11.60;;;10.40;;
527;SDS011;250;47.712;7.508;2022-12-07T01:16:07;14.87;;;12.07;;
527;SDS011;250;47.712;7.508;2022-12-07T01:18:37;15.00;;;11.70;;
527;SDS011;250;47.712;7.508;2022-12-07T01:21:05;16.70;;;12.57;;
527;SDS011;250;47.712;7.508;2022-12-07T01:23:33;14.47;;;12.00;;
527;SDS011;250;47.712;7.508;2022-12-07T01:26:02;13.23;;;11.83;;
527;SDS011;250;47.712;7.508;2022-12-07T01:28:30;12.73;;;10.93;;
527;SDS011;250;47.712;7.508;2022-12-07T01:30:58;15.03;;;12.70;;
527;SDS011;250;47.712;7.508;2022-12-07T01:33:28;13.87;;;12.20;;
527;SDS011;250;47.712;7.508;2022-12-07T01:36:00;16.10;;;12.60;;
527;SDS011;250;47.712;7.508;2022-12-07T01:38:28;15.10;;;12.80;;
527;SDS011;250;47.712;7.508;2022-12-07T01:40:56;13.80;;;12.27;;
527;SDS011;250;47.712;7.508;2022-12-07T01:43:24;13.70;;;11.60;;
527;SDS011;250;47.712;7.508;2022-12-07T01:45:53;14.80;;;11.80;;
527;SDS011;250;47.712;7.508;2022-12-07T01:48:21;14.60;;;12.50;;
527;SDS011;250;47.712;7.508;2022-12-07T01:50:54;15.67;;;12.60;;
527;SDS011;250;47.712;7.508;2022-12-07T01:53:28;14.03;;;11.93;;
527;SDS011;250;47.712;7.508;2022-12-07T01:55:56;13.53;;;10.97;;
527;SDS011;250;47.712;7.508;2022-12-07T01:58:25;13.50;;;11.40;;
527;SDS011;250;47.712;7.508;2022-12-07T02:00:52;15.33;;;11.60;;
527;SDS011;250;47.712;7.508;2022-12-07T02:03:20;12.97;;;11.67;;
527;SDS011;250;47.712;7.508;2022-12-07T02:05:51;13.70;;;11.33;;
527;SDS011;250;47.712;7.508;2022-12-07T02:08:21;17.80;;;11.40;;
527;SDS011;250;47.712;7.508;2022-12-07T02:10:48;12.47;;;10.20;;
527;SDS011;250;47.712;7.508;2022-12-07T02:13:16;15.37;;;11.80;;
527;SDS011;250;47.712;7.508;2022-12-07T02:15:57;13.00;;;11.07;;
527;SDS011;250;47.712;7.508;2022-12-07T02:18:35;13.23;;;11.27;;
527;SDS011;250;47.712;7.508;2022-12-07T02:21:13;13.50;;;10.27;;
527;SDS011;250;47.712;7.508;2022-12-07T02:30:02;12.50;;;10.60;;
527;SDS011;250;47.712;7.508;2022-12-07T02:32:34;14.87;;;11.83;;
527;SDS011;250;47.712;7.508;2022-12-07T02:35:11;14.63;;;10.27;;
527;SDS011;250;47.712;7.508;2022-12-07T02:37:47;11.63;;;10.40;;
527;SDS011;250;47.712;7.508;2022-12-07T02:40:19;12.67;;;11.20;;
527;SDS011;250;47.712;7.508;2022-12-07T02:42:52;15.63;;;12.13;;
527;SDS011;250;47.712;7.508;2022-12-07T02:45:26;15.40;;;13.23;;
527;SDS011;250;47.712;7.508;2022-12-07T02:47:56;13.43;;;11.03;;
527;SDS011;250;47.712;7.508;2022-12-07T02:50:25;16.13;;;11.40;;
527;SDS011;250;47.712;7.508;2022-12-07T02:52:53;14.97;;;11.90;;
527;SDS011;250;47.712;7.508;2022-12-07T02:55:22;14.13;;;12.17;;
527;SDS011;250;47.712;7.508;2022-12-07T02:57:55;13.47;;;11.33;;
527;SDS011;250;47.712;7.508;2022-12-07T03:00:41;14.03;;;10.73;;
527;SDS011;250;47.712;7.508;2022-12-07T03:03:18;14.53;;;11.57;;
527;SDS011;250;47.712;7.508;2022-12-07T03:05:49;13.87;;;11.20;;
527;SDS011;250;47.712;7.508;2022-12-07T03:08:39;15.23;;;12.20;;
527;SDS011;250;47.712;7.508;2022-12-07T03:11:13;12.23;;;10.13;;
527;SDS011;250;47.712;7.508;2022-12-07T03:13:45;15.17;;;12.30;;
527;SDS011;250;47.712;7.508;2022-12-07T03:16:19;14.50;;;12.20;;
527;SDS011;250;47.712;7.508;2022-12-07T03:18:50;14.90;;;12.53;;
527;SDS011;250;47.712;7.508;2022-12-07T03:21:22;16.10;;;12.57;;
527;SDS011;250;47.712;7.508;2022-12-07T03:23:55;14.80;;;12.00;;
527;SDS011;250;47.712;7.508;2022-12-07T03:26:24;15.20;;;11.70;;
527;SDS011;250;47.712;7.508;2022-12-07T03:28:58;13.73;;;10.93;;
527;SDS011;250;47.712;7.508;2022-12-07T03:31:30;16.07;;;12.40;;
527;SDS011;250;47.712;7.508;2022-12-07T03:34:01;19.00;;;12.83;;
527;SDS011;250;47.712;7.508;2022-12-07T03:36:35;15.20;;;11.73;;
527;SDS011;250;47.712;7.508;2022-12-07T03:39:09;15.67;;;11.37;;
527;SDS011;250;47.712;7.508;2022-12-07T03:41:43;14.30;;;11.07;;
527;SDS011;250;47.712;7.508;2022-12-07T03:44:11;14.43;;;11.10;;
527;SDS011;250;47.712;7.508;2022-12-07T03:46:42;14.63;;;9.97;;
527;SDS011;250;47.712;7.508;2022-12-07T03:49:14;11.93;;;9.10;;
527;SDS011;250;47.712;7.508;2022-12-07T03:51:49;10.53;;;8.70;;
527;SDS011;250;47.712;7.508;2022-12-07T03:54:21;10.20;;;7.97;;
527;SDS011;250;47.712;7.508;2022-12-07T03:56:53;10.23;;;8.83;;
527;SDS011;250;47.712;7.508;2022-12-07T03:59:21;14.00;;;8.77;;
527;SDS011;250;47.712;7.508;2022-12-07T04:01:53;10.10;;;8.50;;
527;SDS011;250;47.712;7.508;2022-12-07T04:04:21;15.23;;;10.50;;
527;SDS011;250;47.712;7.508;2022-12-07T04:06:48;12.67;;;10.20;;
527;SDS011;250;47.712;7.508;2022-12-07T04:09:15;14.67;;;10.13;;
527;SDS011;250;47.712;7.508;2022-12-07T04:11:42;10.87;;;9.80;;
527;SDS011;250;47.712;7.508;2022-12-07T04:14:10;17.47;;;12.43;;
527;SDS011;250;47.712;7.508;2022-12-07T04:16:46;16.70;;;12.50;;
527;SDS011;250;47.712;7.508;2022-12-07T04:19:16;17.20;;;13.40;;
527;SDS011;250;47.712;7.508;2022-12-07T04:21:45;14.67;;;10.70;;
527;SDS011;250;47.712;7.508;2022-12-07T04:24:13;14.70;;;11.83;;
527;SDS011;250;47.712;7.508;2022-12-07T04:26:40;13.23;;;10.60;;
527;SDS011;250;47.712;7.508;2022-12-07T04:29:08;14.23;;;11.30;;
527;SDS011;250;47.712;7.508;2022-12-07T04:31:36;15.73;;;13.40;;
527;SDS011;250;47.712;7.508;2022-12-07T04:34:03;15.70;;;12.60;;
527;SDS011;250;47.712;7.508;2022-12-07T04:36:31;19.40;;;13.00;;
527;SDS011;250;47.712;7.508;2022-12-07T04:38:59;14.80;;;12.17;;
527;SDS011;250;47.712;7.508;2022-12-07T04:41:27;13.23;;;10.60;;
527;SDS011;250;47.712;7.508;2022-12-07T04:43:54;12.77;;;10.83;;
527;SDS011;250;47.712;7.508;2022-12-07T04:46:22;10.90;;;9.40;;
527;SDS011;250;47.712;7.508;2022-12-07T04:48:49;13.53;;;11.17;;
527;SDS011;250;47.712;7.508;2022-12-07T04:51:18;12.20;;;10.60;;
527;SDS011;250;47.712;7.508;2022-12-07T04:53:48;14.00;;;10.90;;
527;SDS011;250;47.712;7.508;2022-12-07T04:56:16;13.77;;;12.00;;
527;SDS011;250;47.712;7.508;2022-12-07T04:58:45;13.27;;;11.80;;
527;SDS011;250;47.712;7.508;2022-12-07T05:01:13;10.90;;;9.53;;
527;SDS011;250;47.712;7.508;2022-12-07T05:03:41;12.73;;;11.03;;
527;SDS011;250;47.712;7.508;2022-12-07T05:06:09;14.30;;;9.90;;
527;SDS011;250;47.712;7.508;2022-12-07T05:08:36;13.13;;;9.60;;
527;SDS011;250;47.712;7.508;2022-12-07T05:11:06;13.83;;;9.83;;
527;SDS011;250;47.712;7.508;2022-12-07T05:13:33;12.20;;;10.10;;
527;SDS011;250;47.712;7.508;2022-12-07T05:16:01;11.90;;;9.50;;
527;SDS011;250;47.712;7.508;2022-12-07T05:18:28;11.10;;;9.27;;
527;SDS011;250;47.712;7.508;2022-12-07T05:20:55;11.23;;;8.27;;
527;SDS011;250;47.712;7.508;2022-12-07T05:23:22;10.37;;;8.30;;
527;SDS011;250;47.712;7.508;2022-12-07T05:25:49;10.90;;;9.57;;
527;SDS011;250;47.712;7.508;2022-12-07T05:28:17;13.60;;;10.87;;
527;SDS011;250;47.712;7.508;2022-12-07T05:30:45;13.87;;;9.40;;
527;SDS011;250;47.712;7.508;2022-12-07T05:33:12;13.77;;;10.07;;
527;SDS011;250;47.712;7.508;2022-12-07T05:35:39;14.97;;;12.43;;
527;SDS011;250;47.712;7.508;2022-12-07T05:38:06;17.43;;;14.30;;
527;SDS011;250;47.712;7.508;2022-12-07T05:40:33;14.73;;;11.07;;
527;SDS011;250;47.712;7.508;2022-12-07T05:43:00;13.17;;;10.87;;
527;SDS011;250;47.712;7.508;2022-12-07T05:45:28;18.40;;;14.07;;
527;SDS011;250;47.712;7.508;2022-12-07T05:47:56;19.30;;;17.07;;
527;SDS011;250;47.712;7.508;2022-12-07T05:50:23;14.80;;;12.10;;
527;SDS011;250;47.712;7.508;2022-12-07T05:52:50;16.73;;;11.73;;
527;SDS011;250;47.712;7.508;2022-12-07T05:55:17;17.53;;;13.17;;
527;SDS011;250;47.712;7.508;2022-12-07T05:57:44;24.20;;;19.13;;
527;SDS011;250;47.712;7.508;2022-12-07T06:00:33;28.60;;;19.83;;
527;SDS011;250;47.712;7.508;2022-12-07T06:02:59;20.40;;;16.17;;
527;SDS011;250;47.712;7.508;2022-12-07T06:05:26;24.77;;;19.67;;
527;SDS011;250;47.712;7.508;2022-12-07T06:07:53;16.70;;;13.80;;
527;SDS011;250;47.712;7.508;2022-12-07T06:10:20;14.83;;;11.60;;
527;SDS011;250;47.712;7.508;2022-12-07T06:12:47;17.70;;;11.37;;
527;SDS011;250;47.712;7.508;2022-12-07T06:15:13;12.77;;;10.80;;
527;SDS011;250;47.712;7.508;2022-12-07T06:17:42;12.57;;;10.53;;
527;SDS011;250;47.712;7.508;2022-12-07T06:20:09;19.93;;;12.80;;
527;SDS011;250;47.712;7.508;2022-12-07T06:22:36;18.17;;;13.20;;
527;SDS011;250;47.712;7.508;2022-12-07T06:25:03;20.97;;;15.10;;
527;SDS011;250;47.712;7.508;2022-12-07T06:27:32;18.07;;;14.00;;
527;SDS011;250;47.712;7.508;2022-12-07T06:30:00;18.00;;;13.90;;
527;SDS011;250;47.712;7.508;2022-12-07T06:32:32;18.07;;;13.23;;
527;SDS011;250;47.712;7.508;2022-12-07T06:35:01;27.57;;;16.20;;
527;SDS011;250;47.712;7.508;2022-12-07T06:37:28;26.90;;;18.60;;
527;SDS011;250;47.712;7.508;2022-12-07T06:39:55;26.17;;;19.10;;
527;SDS011;250;47.712;7.508;2022-12-07T06:42:22;25.03;;;19.10;;
527;SDS011;250;47.712;7.508;2022-12-07T06:44:49;31.17;;;21.47;;
527;SDS011;250;47.712;7.508;2022-12-07T06:47:16;28.30;;;19.97;;
527;SDS011;250;47.712;7.508;2022-12-07T06:49:43;26.07;;;19.67;;
527;SDS011;250;47.712;7.508;2022-12-07T06:52:11;21.60;;;15.90;;
527;SDS011;250;47.712;7.508;2022-12-07T06:54:38;21.00;;;15.93;;
527;SDS011;250;47.712;7.508;2022-12-07T06:57:05;18.87;;;13.93;;
527;SDS011;250;47.712;7.508;2022-12-07T06:59:33;19.67;;;14.53;;
527;SDS011;250;47.712;7.508;2022-12-07T07:02:00;18.27;;;13.37;;
527;SDS011;250;47.712;7.508;2022-12-07T07:04:27;18.37;;;13.40;;
527;SDS011;250;47.712;7.508;2022-12-07T07:06:54;20.67;;;15.83;;
527;SDS011;250;47.712;7.508;2022-12-07T07:09:22;20.57;;;16.03;;
527;SDS011;250;47.712;7.508;2022-12-07T07:11:49;18.73;;;15.07;;
527;SDS011;250;47.712;7.508;2022-12-07T07:14:16;17.17;;;14.20;;
527;SDS011;250;47.712;7.508;2022-12-07T07:16:44;13.70;;;11.70;;
527;SDS011;250;47.712;7.508;2022-12-07T07:19:11;14.07;;;12.20;;
527;SDS011;250;47.712;7.508;2022-12-07T07:21:38;17.40;;;13.43;;
527;SDS011;250;47.712;7.508;2022-12-07T07:24:06;16.47;;;12.40;;
527;SDS011;250;47.712;7.508;2022-12-07T07:26:34;22.93;;;15.13;;
527;SDS011;250;47.712;7.508;2022-12-07T07:29:01;18.57;;;14.73;;
527;SDS011;250;47.712;7.508;2022-12-07T07:31:29;15.67;;;13.03;;
527;SDS011;250;47.712;7.508;2022-12-07T07:33:56;15.70;;;13.43;;
527;SDS011;250;47.712;7.508;2022-12-07T07:36:23;19.07;;;14.07;;
527;SDS011;250;47.712;7.508;2022-12-07T07:38:50;18.27;;;13.80;;
527;SDS011;250;47.712;7.508;2022-12-07T07:41:17;19.87;;;15.80;;
527;SDS011;250;47.712;7.508;2022-12-07T07:43:46;16.83;;;13.50;;
527;SDS011;250;47.712;7.508;2022-12-07T07:46:13;18.43;;;13.90;;
527;SDS011;250;47.712;7.508;2022-12-07T07:48:40;22.53;;;17.17;;
527;SDS011;250;47.712;7.508;2022-12-07T07:51:07;17.77;;;14.17;;
527;SDS011;250;47.712;7.508;2022-12-07T07:53:35;15.90;;;12.53;;
527;SDS011;250;47.712;7.508;2022-12-07T07:56:02;15.83;;;12.63;;
527;SDS011;250;47.712;7.508;2022-12-07T07:58:29;17.87;;;12.57;;
527;SDS011;250;47.712;7.508;2022-12-07T08:00:58;15.97;;;12.57;;
527;SDS011;250;47.712;7.508;2022-12-07T08:03:30;16.27;;;11.23;;
527;SDS011;250;47.712;7.508;2022-12-07T08:05:57;20.67;;;14.67;;
527;SDS011;250;47.712;7.508;2022-12-07T08:08:24;17.33;;;14.27;;
527;SDS011;250;47.712;7.508;2022-12-07T08:10:51;19.60;;;15.17;;
527;SDS011;250;47.712;7.508;2022-12-07T08:13:18;17.77;;;14.20;;
527;SDS011;250;47.712;7.508;2022-12-07T08:15:46;15.43;;;13.73;;
527;SDS011;250;47.712;7.508;2022-12-07T08:18:15;16.60;;;14.77;;
527;SDS011;250;47.712;7.508;2022-12-07T08:20:42;20.17;;;17.03;;
527;SDS011;250;47.712;7.508;2022-12-07T08:23:09;21.70;;;15.67;;
527;SDS011;250;47.712;7.508;2022-12-07T08:25:37;24.03;;;17.30;;
527;SDS011;250;47.712;7.508;2022-12-07T08:28:04;20.17;;;14.47;;
527;SDS011;250;47.712;7.508;2022-12-07T08:30:32;20.40;;;13.77;;
527;SDS011;250;47.712;7.508;2022-12-07T08:32:59;15.93;;;14.20;;
527;SDS011;250;47.712;7.508;2022-12-07T08:35:27;22.33;;;17.67;;
527;SDS011;250;47.712;7.508;2022-12-07T08:37:54;26.10;;;19.37;;
527;SDS011;250;47.712;7.508;2022-12-07T08:40:23;20.50;;;15.80;;
527;SDS011;250;47.712;7.508;2022-12-07T08:42:50;20.63;;;17.53;;
527;SDS011;250;47.712;7.508;2022-12-07T08:45:17;18.73;;;16.17;;
527;SDS011;250;47.712;7.508;2022-12-07T08:47:46;27.13;;;17.67;;
527;SDS011;250;47.712;7.508;2022-12-07T08:50:16;18.03;;;14.10;;
527;SDS011;250;47.712;7.508;2022-12-07T08:52:46;16.37;;;13.03;;
527;SDS011;250;47.712;7.508;2022-12-07T08:55:16;19.70;;;13.60;;
527;SDS011;250;47.712;7.508;2022-12-07T08:57:44;17.53;;;14.83;;
527;SDS011;250;47.712;7.508;2022-12-07T09:00:11;19.90;;;15.10;;
527;SDS011;250;47.712;7.508;2022-12-07T09:02:39;19.00;;;13.60;;
527;SDS011;250;47.712;7.508;2022-12-07T09:05:07;17.90;;;14.70;;
527;SDS011;250;47.712;7.508;2022-12-07T09:07:34;21.40;;;13.83;;
527;SDS011;250;47.712;7.508;2022-12-07T09:10:04;21.10;;;13.10;;
527;SDS011;250;47.712;7.508;2022-12-07T09:12:32;16.67;;;13.77;;
527;SDS011;250;47.712;7.508;2022-12-07T09:14:59;11.50;;;10.27;;
527;SDS011;250;47.712;7.508;2022-12-07T09:17:26;17.00;;;13.20;;
527;SDS011;250;47.712;7.508;2022-12-07T09:19:53;18.40;;;14.50;;
527;SDS011;250;47.712;7.508;2022-12-07T09:22:20;17.20;;;13.43;;
527;SDS011;250;47.712;7.508;2022-12-07T09:24:47;16.17;;;12.47;;
527;SDS011;250;47.712;7.508;2022-12-07T09:27:16;20.27;;;14.53;;
527;SDS011;250;47.712;7.508;2022-12-07T09:29:43;18.57;;;13.90;;
527;SDS011;250;47.712;7.508;2022-12-07T09:32:10;21.93;;;15.27;;
527;SDS011;250;47.712;7.508;2022-12-07T09:34:38;18.00;;;14.03;;
527;SDS011;250;47.712;7.508;2022-12-07T09:37:05;14.90;;;12.43;;
527;SDS011;250;47.712;7.508;2022-12-07T09:39:32;18.83;;;14.23;;
527;SDS011;250;47.712;7.508;2022-12-07T09:41:59;18.10;;;13.83;;
527;SDS011;250;47.712;7.508;2022-12-07T09:44:31;17.83;;;13.90;;
527;SDS011;250;47.712;7.508;2022-12-07T09:46:59;19.07;;;14.27;;
527;SDS011;250;47.712;7.508;2022-12-07T09:49:28;17.20;;;14.40;;
527;SDS011;250;47.712;7.508;2022-12-07T09:52:00;18.20;;;15.70;;
527;SDS011;250;47.712;7.508;2022-12-07T09:54:29;18.50;;;14.73;;
527;SDS011;250;47.712;7.508;2022-12-07T09:56:57;18.93;;;15.40;;
527;SDS011;250;47.712;7.508;2022-12-07T09:59:25;21.33;;;17.13;;
527;SDS011;250;47.712;7.508;2022-12-07T10:01:53;19.43;;;16.33;;
527;SDS011;250;47.712;7.508;2022-12-07T10:04:22;18.90;;;14.50;;
527;SDS011;250;47.712;7.508;2022-12-07T10:06:51;17.87;;;14.47;;
527;SDS011;250;47.712;7.508;2022-12-07T10:09:19;20.47;;;14.67;;
527;SDS011;250;47.712;7.508;2022-12-07T10:12:03;19.73;;;14.77;;
527;SDS011;250;47.712;7.508;2022-12-07T10:14:34;21.07;;;15.83;;
527;SDS011;250;47.712;7.508;2022-12-07T10:17:13;18.83;;;15.83;;
527;SDS011;250;47.712;7.508;2022-12-07T10:20:08;18.60;;;14.43;;
527;SDS011;250;47.712;7.508;2022-12-07T10:22:44;15.77;;;14.07;;
527;SDS011;250;47.712;7.508;2022-12-07T10:25:21;17.10;;;13.73;;
527;SDS011;250;47.712;7.508;2022-12-07T10:27:57;18.90;;;14.83;;
527;SDS011;250;47.712;7.508;2022-12-07T10:30:25;18.00;;;13.97;;
527;SDS011;250;47.712;7.508;2022-12-07T10:32:54;17.80;;;14.67;;
527;SDS011;250;47.712;7.508;2022-12-07T10:35:22;15.53;;;12.93;;
527;SDS011;250;47.712;7.508;2022-12-07T10:37:51;15.83;;;13.00;;
527;SDS011;250;47.712;7.508;2022-12-07T10:40:25;16.17;;;12.60;;
527;SDS011;250;47.712;7.508;2022-12-07T10:43:05;16.23;;;13.03;;
527;SDS011;250;47.712;7.508;2022-12-07T10:45:45;15.70;;;13.73;;
527;SDS011;250;47.712;7.508;2022-12-07T10:48:42;30.67;;;19.23;;
527;SDS011;250;47.712;7.508;2022-12-07T10:51:17;18.40;;;12.10;;
527;SDS011;250;47.712;7.508;2022-12-07T10:53:56;14.87;;;11.87;;
527;SDS011;250;47.712;7.508;2022-12-07T10:56:41;17.23;;;12.93;;
527;SDS011;250;47.712;7.508;2022-12-07T10:59:23;16.10;;;12.07;;
527;SDS011;250;47.712;7.508;2022-12-07T11:02:19;15.20;;;13.30;;
527;SDS011;250;47.712;7.508;2022-12-07T11:04:57;12.83;;;10.03;;
527;SDS011;250;47.712;7.508;2022-12-07T11:07:32;15.97;;;13.13;;
527;SDS011;250;47.712;7.508;2022-12-07T11:10:08;13.77;;;11.57;;
527;SDS011;250;47.712;7.508;2022-12-07T11:12:45;13.30;;;9.43;;
527;SDS011;250;47.712;7.508;2022-12-07T11:15:21;15.60;;;10.90;;
527;SDS011;250;47.712;7.508;2022-12-07T11:17:54;9.97;;;8.87;;
527;SDS011;250;47.712;7.508;2022-12-07T11:20:36;13.63;;;8.80;;
527;SDS011;250;47.712;7.508;2022-12-07T11:23:13;12.20;;;9.23;;
527;SDS011;250;47.712;7.508;2022-12-07T11:25:49;12.07;;;9.20;;
527;SDS011;250;47.712;7.508;2022-12-07T11:28:27;10.13;;;8.13;;
527;SDS011;250;47.712;7.508;2022-12-07T11:31:08;9.50;;;6.80;;
527;SDS011;250;47.712;7.508;2022-12-07T11:33:41;12.20;;;8.60;;
527;SDS011;250;47.712;7.508;2022-12-07T11:36:17;10.90;;;8.70;;
527;SDS011;250;47.712;7.508;2022-12-07T11:38:57;11.00;;;8.10;;
527;SDS011;250;47.712;7.508;2022-12-07T11:41:28;23.37;;;18.30;;
527;SDS011;250;47.712;7.508;2022-12-07T11:44:00;10.80;;;8.37;;
527;SDS011;250;47.712;7.508;2022-12-07T11:46:36;7.90;;;6.70;;
527;SDS011;250;47.712;7.508;2022-12-07T11:49:15;7.53;;;6.00;;
527;SDS011;250;47.712;7.508;2022-12-07T11:51:52;6.67;;;5.00;;
527;SDS011;250;47.712;7.508;2022-12-07T11:54:24;7.80;;;6.00;;
527;SDS011;250;47.712;7.508;2022-12-07T11:56:55;11.83;;;10.03;;
527;SDS011;250;47.712;7.508;2022-12-07T11:59:28;8.27;;;6.30;;
527;SDS011;250;47.712;7.508;2022-12-07T12:02:03;7.40;;;5.47;;
527;SDS011;250;47.712;7.508;2022-12-07T12:04:42;8.53;;;6.70;;
527;SDS011;250;47.712;7.508;2022-12-07T12:07:18;4.60;;;4.10;;
527;SDS011;250;47.712;7.508;2022-12-07T12:09:49;6.00;;;4.30;;
527;SDS011;250;47.712;7.508;2022-12-07T12:12:27;8.67;;;6.40;;
527;SDS011;250;47.712;7.508;2022-12-07T12:15:14;7.67;;;6.03;;
527;SDS011;250;47.712;7.508;2022-12-07T12:17:59;9.90;;;7.57;;
527;SDS011;250;47.712;7.508;2022-12-07T12:20:51;7.73;;;6.73;;
527;SDS011;250;47.712;7.508;2022-12-07T12:23:27;5.70;;;4.83;;
527;SDS011;250;47.712;7.508;2022-12-07T12:26:02;5.87;;;4.83;;
527;SDS011;250;47.712;7.508;2022-12-07T12:28:33;6.77;;;5.57;;
527;SDS011;250;47.712;7.508;2022-12-07T12:31:07;5.80;;;5.17;;
527;SDS011;250;47.712;7.508;2022-12-07T12:33:36;6.33;;;5.20;;
527;SDS011;250;47.712;7.508;2022-12-07T12:36:18;9.50;;;6.33;;
527;SDS011;250;47.712;7.508;2022-12-07T12:38:52;7.20;;;4.90;;
527;SDS011;250;47.712;7.508;2022-12-07T12:41:52;5.70;;;4.20;;
527;SDS011;250;47.712;7.508;2022-12-07T12:44:40;6.23;;;4.60;;
527;SDS011;250;47.712;7.508;2022-12-07T12:47:41;6.63;;;3.87;;
527;SDS011;250;47.712;7.508;2022-12-07T12:50:19;7.20;;;5.17;;
527;SDS011;250;47.712;7.508;2022-12-07T12:52:49;4.57;;;4.07;;
527;SDS011;250;47.712;7.508;2022-12-07T12:55:42;7.17;;;6.00;;
527;SDS011;250;47.712;7.508;2022-12-07T12:58:34;5.37;;;3.97;;
527;SDS011;250;47.712;7.508;2022-12-07T13:04:14;7.40;;;6.00;;
527;SDS011;250;47.712;7.508;2022-12-07T13:06:47;6.07;;;5.13;;
527;SDS011;250;47.712;7.508;2022-12-07T13:09:18;6.17;;;4.83;;
527;SDS011;250;47.712;7.508;2022-12-07T13:11:50;6.87;;;4.97;;
527;SDS011;250;47.712;7.508;2022-12-07T13:14:40;7.50;;;4.87;;
527;SDS011;250;47.712;7.508;2022-12-07T13:20:45;5.47;;;4.47;;
527;SDS011;250;47.712;7.508;2022-12-07T13:23:15;6.40;;;5.00;;
527;SDS011;250;47.712;7.508;2022-12-07T13:25:51;6.20;;;4.83;;
527;SDS011;250;47.712;7.508;2022-12-07T13:28:23;8.93;;;4.50;;
527;SDS011;250;47.712;7.508;2022-12-07T13:30:59;5.80;;;5.03;;
527;SDS011;250;47.712;7.508;2022-12-07T13:33:35;5.57;;;4.80;;
527;SDS011;250;47.712;7.508;2022-12-07T13:36:02;7.93;;;4.27;;
527;SDS011;250;47.712;7.508;2022-12-07T13:38:30;5.53;;;4.47;;
527;SDS011;250;47.712;7.508;2022-12-07T13:41:04;5.70;;;4.30;;
527;SDS011;250;47.712;7.508;2022-12-07T13:43:43;5.03;;;3.67;;
527;SDS011;250;47.712;7.508;2022-12-07T13:46:12;5.60;;;4.40;;
527;SDS011;250;47.712;7.508;2022-12-07T13:48:43;5.43;;;4.50;;
527;SDS011;250;47.712;7.508;2022-12-07T13:51:19;8.00;;;6.07;;
527;SDS011;250;47.712;7.508;2022-12-07T13:53:48;6.33;;;4.73;;
527;SDS011;250;47.712;7.508;2022-12-07T13:56:17;6.00;;;4.70;;
527;SDS011;250;47.712;7.508;2022-12-07T13:58:46;7.63;;;4.80;;
527;SDS011;250;47.712;7.508;2022-12-07T14:01:13;5.50;;;4.60;;
527;SDS011;250;47.712;7.508;2022-12-07T14:03:40;6.23;;;4.67;;
527;SDS011;250;47.712;7.508;2022-12-07T14:06:13;6.10;;;4.70;;
527;SDS011;250;47.712;7.508;2022-12-07T14:08:43;5.03;;;3.73;;
527;SDS011;250;47.712;7.508;2022-12-07T14:11:13;6.77;;;5.20;;
527;SDS011;250;47.712;7.508;2022-12-07T14:13:57;6.70;;;5.13;;
527;SDS011;250;47.712;7.508;2022-12-07T14:16:27;7.03;;;5.13;;
527;SDS011;250;47.712;7.508;2022-12-07T14:18:56;6.30;;;4.33;;
527;SDS011;250;47.712;7.508;2022-12-07T14:21:24;8.90;;;4.67;;
527;SDS011;250;47.712;7.508;2022-12-07T14:24:10;5.57;;;4.50;;
527;SDS011;250;47.712;7.508;2022-12-07T14:26:41;7.30;;;5.00;;
527;SDS011;250;47.712;7.508;2022-12-07T14:29:29;6.73;;;5.80;;
527;SDS011;250;47.712;7.508;2022-12-07T14:32:04;8.00;;;6.10;;
527;SDS011;250;47.712;7.508;2022-12-07T14:34:57;6.73;;;6.00;;
527;SDS011;250;47.712;7.508;2022-12-07T14:37:26;9.40;;;6.50;;
527;SDS011;250;47.712;7.508;2022-12-07T14:39:55;10.80;;;8.40;;
527;SDS011;250;47.712;7.508;2022-12-07T14:42:23;13.67;;;10.03;;
527;SDS011;250;47.712;7.508;2022-12-07T14:44:55;20.13;;;14.90;;
527;SDS011;250;47.712;7.508;2022-12-07T14:47:22;7.03;;;5.90;;
527;SDS011;250;47.712;7.508;2022-12-07T14:49:49;9.50;;;7.43;;
527;SDS011;250;47.712;7.508;2022-12-07T14:52:17;8.60;;;6.97;;
527;SDS011;250;47.712;7.508;2022-12-07T14:54:46;8.00;;;6.23;;
527;SDS011;250;47.712;7.508;2022-12-07T14:57:13;9.20;;;7.87;;
527;SDS011;250;47.712;7.508;2022-12-07T14:59:41;6.57;;;5.87;;
527;SDS011;250;47.712;7.508;2022-12-07T15:02:10;6.70;;;6.00;;
527;SDS011;250;47.712;7.508;2022-12-07T15:04:41;8.00;;;6.17;;
527;SDS011;250;47.712;7.508;2022-12-07T15:07:10;7.63;;;5.20;;
527;SDS011;250;47.712;7.508;2022-12-07T15:09:44;8.33;;;5.90;;
527;SDS011;250;47.712;7.508;2022-12-07T15:12:11;8.90;;;6.87;;
527;SDS011;250;47.712;7.508;2022-12-07T15:14:38;11.30;;;8.90;;
527;SDS011;250;47.712;7.508;2022-12-07T15:17:05;7.80;;;6.40;;
527;SDS011;250;47.712;7.508;2022-12-07T15:19:33;6.83;;;5.50;;
527;SDS011;250;47.712;7.508;2022-12-07T15:22:00;9.13;;;6.90;;
527;SDS011;250;47.712;7.508;2022-12-07T15:24:27;9.40;;;6.57;;
527;SDS011;250;47.712;7.508;2022-12-07T15:26:54;8.80;;;7.50;;
527;SDS011;250;47.712;7.508;2022-12-07T15:29:22;7.73;;;6.33;;
527;SDS011;250;47.712;7.508;2022-12-07T15:31:49;6.83;;;6.00;;
527;SDS011;250;47.712;7.508;2022-12-07T15:34:16;6.67;;;5.17;;
527;SDS011;250;47.712;7.508;2022-12-07T15:36:44;7.70;;;6.93;;
527;SDS011;250;47.712;7.508;2022-12-07T15:39:11;6.00;;;5.40;;
527;SDS011;250;47.712;7.508;2022-12-07T15:41:38;7.07;;;5.90;;
527;SDS011;250;47.712;7.508;2022-12-07T15:44:05;5.23;;;4.70;;
527;SDS011;250;47.712;7.508;2022-12-07T15:46:52;6.73;;;4.97;;
527;SDS011;250;47.712;7.508;2022-12-07T15:49:19;8.97;;;6.00;;
527;SDS011;250;47.712;7.508;2022-12-07T15:51:47;6.33;;;5.13;;
527;SDS011;250;47.712;7.508;2022-12-07T15:54:16;7.43;;;5.90;;
527;SDS011;250;47.712;7.508;2022-12-07T15:56:46;6.70;;;5.27;;
527;SDS011;250;47.712;7.508;2022-12-07T15:59:13;7.50;;;5.50;;
527;SDS011;250;47.712;7.508;2022-12-07T16:01:40;6.33;;;4.93;;